createdAt,value
2018-04-13T00:00:37.650Z,0
2018-04-13T00:01:39.600Z,0
2018-04-13T00:02:41.567Z,0
2018-04-13T00:03:43.623Z,0
2018-04-13T00:04:45.671Z,0
2018-04-13T00:05:47.885Z,0
2018-04-13T00:06:50.107Z,0
2018-04-13T00:07:52.178Z,0
2018-04-13T00:08:54.338Z,0
2018-04-13T00:09:56.398Z,0
2018-04-13T00:10:58.295Z,0
2018-04-13T00:12:00.306Z,0
2018-04-13T00:13:02.247Z,0
2018-04-13T00:14:04.390Z,0
2018-04-13T00:15:06.300Z,0
2018-04-13T00:16:08.246Z,0
2018-04-13T00:17:10.367Z,0
2018-04-13T00:18:13.100Z,0
2018-04-13T00:19:15.092Z,0
2018-04-13T00:20:17.071Z,0
2018-04-13T00:21:19.169Z,0
2018-04-13T00:22:21.079Z,0
2018-04-13T00:23:22.887Z,0
2018-04-13T00:24:24.695Z,0
2018-04-13T00:25:26.686Z,0
2018-04-13T00:26:28.508Z,0
2018-04-13T00:27:30.421Z,0
2018-04-13T00:28:32.502Z,0
2018-04-13T00:29:34.548Z,0
2018-04-13T00:30:36.601Z,0
2018-04-13T00:31:38.287Z,0
2018-04-13T00:32:40.267Z,0
2018-04-13T00:33:42.151Z,0
2018-04-13T00:34:44.415Z,0
2018-04-13T00:35:46.314Z,0
2018-04-13T00:36:48.113Z,0
2018-04-13T00:37:50.069Z,0
2018-04-13T00:38:52.099Z,0
2018-04-13T00:39:54.182Z,0
2018-04-13T00:40:55.934Z,0
2018-04-13T00:41:57.973Z,0
2018-04-13T00:43:00.110Z,0
2018-04-13T00:44:02.169Z,0
2018-04-13T00:45:04.226Z,0
2018-04-13T00:46:06.151Z,0
2018-04-13T00:47:08.202Z,0
2018-04-13T00:48:10.086Z,0
2018-04-13T00:49:12.133Z,0
2018-04-13T00:50:14.175Z,0
2018-04-13T00:51:16.108Z,0
2018-04-13T00:52:18.035Z,0
2018-04-13T00:53:19.983Z,0
2018-04-13T00:54:21.838Z,0
2018-04-13T00:55:23.882Z,0
2018-04-13T00:56:26.058Z,0
2018-04-13T00:57:27.773Z,0
2018-04-13T00:58:29.739Z,0
2018-04-13T00:59:31.810Z,0
2018-04-13T01:00:33.800Z,0
2018-04-13T01:01:35.706Z,0
2018-04-13T01:02:37.548Z,0
2018-04-13T01:03:39.716Z,0
2018-04-13T01:04:41.545Z,0
2018-04-13T01:05:43.513Z,0
2018-04-13T01:06:45.626Z,0
2018-04-13T01:07:47.645Z,0
2018-04-13T01:08:49.520Z,0
2018-04-13T01:09:51.480Z,0
2018-04-13T01:10:53.621Z,0
2018-04-13T01:11:55.565Z,0
2018-04-13T01:12:57.558Z,0
2018-04-13T01:13:59.421Z,0
2018-04-13T01:15:01.530Z,0
2018-04-13T01:16:03.216Z,0
2018-04-13T01:17:05.138Z,0
2018-04-13T01:18:07.126Z,0
2018-04-13T01:19:08.964Z,0
2018-04-13T01:20:10.992Z,0
2018-04-13T01:21:12.922Z,0
2018-04-13T01:22:14.849Z,0
2018-04-13T01:23:16.772Z,0
2018-04-13T01:24:18.825Z,0
2018-04-13T01:25:20.599Z,0
2018-04-13T01:26:22.650Z,0
2018-04-13T01:27:24.511Z,0
2018-04-13T01:28:26.561Z,0
2018-04-13T01:29:28.524Z,0
2018-04-13T01:30:30.400Z,0
2018-04-13T01:31:32.218Z,0
2018-04-13T01:32:34.351Z,0
2018-04-13T01:33:36.353Z,0
2018-04-13T01:34:38.361Z,0
2018-04-13T01:35:40.217Z,0
2018-04-13T01:36:42.312Z,0
2018-04-13T01:37:44.417Z,0
2018-04-13T01:38:46.434Z,0
2018-04-13T01:39:48.338Z,0
2018-04-13T01:40:50.192Z,0
2018-04-13T01:41:52.163Z,0
2018-04-13T01:42:54.164Z,0
2018-04-13T01:43:56.112Z,0
2018-04-13T01:44:58.117Z,0
2018-04-13T01:46:00.008Z,0
2018-04-13T01:47:02.134Z,0
2018-04-13T01:48:04.111Z,0
2018-04-13T01:49:06.119Z,0
2018-04-13T01:50:08.239Z,0
2018-04-13T01:51:10.160Z,0
2018-04-13T01:52:12.105Z,0
2018-04-13T01:53:14.058Z,0
2018-04-13T01:54:16.135Z,0
2018-04-13T01:55:18.228Z,0
2018-04-13T01:56:20.245Z,0
2018-04-13T01:57:22.246Z,0
2018-04-13T01:58:24.178Z,0
2018-04-13T01:59:26.131Z,0
2018-04-13T02:00:28.054Z,0
2018-04-13T02:01:30.062Z,0
2018-04-13T02:02:32.116Z,0
2018-04-13T02:03:34.161Z,0
2018-04-13T02:04:36.247Z,0
2018-04-13T02:05:38.344Z,0
2018-04-13T02:06:40.200Z,0
2018-04-13T02:07:42.177Z,0
2018-04-13T02:08:43.872Z,0
2018-04-13T02:09:45.921Z,0
2018-04-13T02:10:47.981Z,0
2018-04-13T02:11:49.903Z,0
2018-04-13T02:12:51.610Z,0
2018-04-13T02:13:53.717Z,0
2018-04-13T02:14:55.715Z,0
2018-04-13T02:15:57.737Z,0
2018-04-13T02:16:59.705Z,0
2018-04-13T02:18:01.681Z,0
2018-04-13T02:19:03.583Z,0
2018-04-13T02:20:05.734Z,0
2018-04-13T02:21:07.761Z,0
2018-04-13T02:22:09.805Z,0
2018-04-13T02:23:11.657Z,0
2018-04-13T02:24:13.587Z,0
2018-04-13T02:25:15.573Z,0
2018-04-13T02:26:17.582Z,0
2018-04-13T02:27:19.594Z,0
2018-04-13T02:28:21.552Z,0
2018-04-13T02:29:23.555Z,0
2018-04-13T02:30:25.646Z,0
2018-04-13T02:31:27.827Z,0
2018-04-13T02:32:29.817Z,0
2018-04-13T02:33:31.801Z,0
2018-04-13T02:34:33.915Z,0
2018-04-13T02:35:35.690Z,0
2018-04-13T02:36:37.692Z,0
2018-04-13T02:37:39.671Z,0
2018-04-13T02:38:41.614Z,0
2018-04-13T02:39:43.719Z,0
2018-04-13T02:40:45.579Z,0
2018-04-13T02:41:47.456Z,0
2018-04-13T02:42:49.484Z,0
2018-04-13T02:43:51.489Z,0
2018-04-13T02:44:53.526Z,0
2018-04-13T02:45:55.455Z,0
2018-04-13T02:46:57.324Z,0
2018-04-13T02:47:59.180Z,0
2018-04-13T02:49:01.067Z,0
2018-04-13T02:50:03.499Z,0
2018-04-13T02:51:05.549Z,0
2018-04-13T02:52:07.617Z,0
2018-04-13T02:53:09.411Z,0
2018-04-13T02:54:12.319Z,0
2018-04-13T02:55:14.204Z,0
2018-04-13T02:56:16.030Z,0
2018-04-13T02:57:18.124Z,0
2018-04-13T02:58:20.061Z,0
2018-04-13T02:59:21.925Z,0
2018-04-13T03:00:24.162Z,0
2018-04-13T03:01:26.120Z,0
2018-04-13T03:02:27.981Z,0
2018-04-13T03:03:29.823Z,0
2018-04-13T03:04:31.734Z,0
2018-04-13T03:05:33.687Z,0
2018-04-13T03:06:35.474Z,0
2018-04-13T03:07:37.611Z,0
2018-04-13T03:08:39.421Z,0
2018-04-13T03:09:41.417Z,0
2018-04-13T03:10:43.489Z,0
2018-04-13T03:11:45.333Z,0
2018-04-13T03:12:47.357Z,0
2018-04-13T03:13:49.215Z,0
2018-04-13T03:14:51.140Z,0
2018-04-13T03:15:53.282Z,0
2018-04-13T03:16:55.358Z,0
2018-04-13T03:17:57.296Z,0
2018-04-13T03:18:59.325Z,0
2018-04-13T03:20:01.331Z,0
2018-04-13T03:21:03.180Z,0
2018-04-13T03:22:05.151Z,0
2018-04-13T03:23:07.038Z,0
2018-04-13T03:24:09.063Z,0
2018-04-13T03:25:10.852Z,0
2018-04-13T03:26:12.895Z,0
2018-04-13T03:27:15.039Z,0
2018-04-13T03:28:17.009Z,0
2018-04-13T03:29:18.888Z,0
2018-04-13T03:30:20.819Z,0
2018-04-13T03:31:22.838Z,0
2018-04-13T03:32:24.873Z,0
2018-04-13T03:33:26.923Z,0
2018-04-13T03:34:28.693Z,0
2018-04-13T03:35:30.552Z,0
2018-04-13T03:36:32.682Z,0
2018-04-13T03:37:34.549Z,0
2018-04-13T03:38:36.611Z,0
2018-04-13T03:39:38.562Z,0
2018-04-13T03:40:40.746Z,0
2018-04-13T03:41:42.693Z,0
2018-04-13T03:42:44.683Z,0
2018-04-13T03:43:46.410Z,0
2018-04-13T03:44:48.231Z,0
2018-04-13T03:45:50.185Z,0
2018-04-13T03:46:52.110Z,0
2018-04-13T03:47:54.004Z,0
2018-04-13T03:48:56.050Z,0
2018-04-13T03:49:58.059Z,0
2018-04-13T03:51:00.056Z,0
2018-04-13T03:52:02.128Z,0
2018-04-13T03:53:04.124Z,0
2018-04-13T03:54:06.005Z,0
2018-04-13T03:55:08.104Z,0
2018-04-13T03:56:10.197Z,0
2018-04-13T03:57:12.200Z,0
2018-04-13T03:58:14.112Z,0
2018-04-13T03:59:16.180Z,0
2018-04-13T04:00:18.447Z,0
2018-04-13T04:01:20.496Z,0
2018-04-13T04:02:22.636Z,0
2018-04-13T04:03:24.619Z,0
2018-04-13T04:04:26.754Z,0
2018-04-13T04:05:28.612Z,0
2018-04-13T04:06:30.679Z,0
2018-04-13T04:07:32.441Z,0
2018-04-13T04:08:34.477Z,4
2018-04-13T04:09:36.438Z,4
2018-04-13T04:10:38.555Z,0
2018-04-13T04:11:40.580Z,4
2018-04-13T04:12:42.502Z,4
2018-04-13T04:13:44.225Z,4
2018-04-13T04:14:46.121Z,8
2018-04-13T04:15:48.140Z,8
2018-04-13T04:16:50.264Z,8
2018-04-13T04:17:52.186Z,8
2018-04-13T04:18:54.250Z,12
2018-04-13T04:19:56.245Z,16
2018-04-13T04:20:58.239Z,16
2018-04-13T04:22:00.288Z,24
2018-04-13T04:23:02.398Z,28
2018-04-13T04:24:04.069Z,32
2018-04-13T04:25:06.070Z,32
2018-04-13T04:26:07.966Z,40
2018-04-13T04:27:09.965Z,44
2018-04-13T04:28:11.760Z,52
2018-04-13T04:29:13.531Z,60
2018-04-13T04:30:15.601Z,68
2018-04-13T04:31:17.562Z,76
2018-04-13T04:32:19.498Z,84
2018-04-13T04:33:21.320Z,96
2018-04-13T04:34:23.274Z,108
2018-04-13T04:35:25.191Z,120
2018-04-13T04:36:27.062Z,132
2018-04-13T04:37:28.929Z,148
2018-04-13T04:38:30.755Z,160
2018-04-13T04:39:32.733Z,176
2018-04-13T04:40:34.757Z,192
2018-04-13T04:41:36.602Z,212
2018-04-13T04:42:38.602Z,240
2018-04-13T04:43:40.744Z,272
2018-04-13T04:44:42.883Z,304
2018-04-13T04:45:44.870Z,340
2018-04-13T04:46:46.720Z,376
2018-04-13T04:47:48.711Z,416
2018-04-13T04:48:50.682Z,452
2018-04-13T04:49:52.788Z,492
2018-04-13T04:50:54.810Z,536
2018-04-13T04:51:56.942Z,584
2018-04-13T04:52:59.055Z,640
2018-04-13T04:54:01.070Z,696
2018-04-13T04:55:03.022Z,756
2018-04-13T04:56:04.926Z,816
2018-04-13T04:57:06.905Z,880
2018-04-13T04:58:09.033Z,952
2018-04-13T04:59:10.941Z,1032
2018-04-13T05:00:12.839Z,1124
2018-04-13T05:01:14.889Z,1224
2018-04-13T05:02:16.796Z,1336
2018-04-13T05:03:18.696Z,1436
2018-04-13T05:04:20.649Z,1544
2018-04-13T05:05:22.606Z,1648
2018-04-13T05:06:24.620Z,1752
2018-04-13T05:07:26.593Z,1852
2018-04-13T05:08:28.651Z,1936
2018-04-13T05:09:30.436Z,2020
2018-04-13T05:10:32.603Z,2104
2018-04-13T05:11:34.404Z,2168
2018-04-13T05:12:36.278Z,2212
2018-04-13T05:13:38.262Z,2244
2018-04-13T05:14:40.241Z,2280
2018-04-13T05:15:42.127Z,2316
2018-04-13T05:16:44.111Z,2356
2018-04-13T05:17:46.135Z,2408
2018-04-13T05:18:48.108Z,2492
2018-04-13T05:19:50.023Z,2588
2018-04-13T05:20:52.081Z,2660
2018-04-13T05:21:54.049Z,2708
2018-04-13T05:22:55.970Z,2752
2018-04-13T05:23:57.749Z,2788
2018-04-13T05:24:59.654Z,2824
2018-04-13T05:26:01.544Z,2868
2018-04-13T05:27:03.329Z,2904
2018-04-13T05:28:05.118Z,2932
2018-04-13T05:29:06.844Z,2972
2018-04-13T05:30:08.857Z,3040
2018-04-13T05:31:10.669Z,3152
2018-04-13T05:32:12.458Z,3284
2018-04-13T05:33:14.349Z,3420
2018-04-13T05:34:16.243Z,3536
2018-04-13T05:35:18.060Z,3600
2018-04-13T05:36:19.746Z,3600
2018-04-13T05:37:21.591Z,3600
2018-04-13T05:38:23.379Z,3608
2018-04-13T05:39:25.129Z,3616
2018-04-13T05:40:27.075Z,3620
2018-04-13T05:41:28.827Z,3604
2018-04-13T05:42:30.607Z,3572
2018-04-13T05:43:32.489Z,3544
2018-04-13T05:44:34.251Z,3524
2018-04-13T05:45:36.063Z,3508
2018-04-13T05:46:38.078Z,3500
2018-04-13T05:47:39.886Z,3520
2018-04-13T05:48:41.668Z,3536
2018-04-13T05:49:43.566Z,3544
2018-04-13T05:50:45.535Z,3556
2018-04-13T05:51:47.384Z,3592
2018-04-13T05:52:49.462Z,3656
2018-04-13T05:53:51.481Z,3732
2018-04-13T05:54:53.215Z,3772
2018-04-13T05:55:54.960Z,3844
2018-04-13T05:56:56.756Z,3932
2018-04-13T05:57:58.590Z,3944
2018-04-13T05:59:00.425Z,3964
2018-04-13T06:00:02.321Z,3976
2018-04-13T06:01:04.148Z,4136
2018-04-13T06:02:05.941Z,4404
2018-04-13T06:03:07.807Z,4516
2018-04-13T06:04:09.556Z,4512
2018-04-13T06:05:11.457Z,4800
2018-04-13T06:06:13.360Z,5192
2018-04-13T06:07:15.112Z,5408
2018-04-13T06:08:16.887Z,5428
2018-04-13T06:09:18.667Z,6236
2018-04-13T06:10:20.576Z,6048
2018-04-13T06:11:22.440Z,6372
2018-04-13T06:12:24.284Z,6196
2018-04-13T06:13:26.174Z,6232
2018-04-13T06:14:28.014Z,6316
2018-04-13T06:15:30.619Z,6196
2018-04-13T06:16:32.397Z,5828
2018-04-13T06:17:34.351Z,5544
2018-04-13T06:18:36.271Z,5312
2018-04-13T06:19:38.278Z,5160
2018-04-13T06:20:40.140Z,5072
2018-04-13T06:21:41.957Z,5084
2018-04-13T06:22:43.830Z,5228
2018-04-13T06:23:45.629Z,5448
2018-04-13T06:24:47.359Z,5788
2018-04-13T06:25:49.134Z,6076
2018-04-13T06:26:51.046Z,6280
2018-04-13T06:27:52.932Z,6400
2018-04-13T06:28:54.826Z,6416
2018-04-13T06:29:56.869Z,6428
2018-04-13T06:30:58.838Z,6532
2018-04-13T06:32:00.724Z,6776
2018-04-13T06:33:02.594Z,7136
2018-04-13T06:34:04.417Z,7432
2018-04-13T06:35:06.307Z,7480
2018-04-13T06:36:08.194Z,7324
2018-04-13T06:37:10.013Z,7080
2018-04-13T06:38:11.836Z,6864
2018-04-13T06:39:13.689Z,6780
2018-04-13T06:40:15.491Z,6876
2018-04-13T06:41:17.355Z,7036
2018-04-13T06:42:19.127Z,7112
2018-04-13T06:43:21.062Z,7048
2018-04-13T06:44:22.890Z,6856
2018-04-13T06:45:24.685Z,6576
2018-04-13T06:46:26.493Z,6308
2018-04-13T06:47:28.261Z,6160
2018-04-13T06:48:30.224Z,6100
2018-04-13T06:49:32.126Z,6024
2018-04-13T06:50:34.051Z,5896
2018-04-13T06:51:35.824Z,5788
2018-04-13T06:52:37.574Z,5688
2018-04-13T06:53:39.547Z,5596
2018-04-13T06:54:42.115Z,5548
2018-04-13T06:55:43.939Z,5544
2018-04-13T06:56:45.899Z,5544
2018-04-13T06:57:47.883Z,5540
2018-04-13T06:58:49.760Z,5548
2018-04-13T06:59:51.742Z,5536
2018-04-13T07:00:53.615Z,5508
2018-04-13T07:01:55.307Z,5504
2018-04-13T07:02:56.956Z,5560
2018-04-13T07:03:59.004Z,5640
2018-04-13T07:05:00.925Z,5748
2018-04-13T07:06:02.993Z,5900
2018-04-13T07:07:04.756Z,6120
2018-04-13T07:08:06.481Z,6320
2018-04-13T07:09:08.338Z,6556
2018-04-13T07:10:10.247Z,6800
2018-04-13T07:11:12.206Z,6988
2018-04-13T07:12:13.997Z,7092
2018-04-13T07:13:15.912Z,7132
2018-04-13T07:14:17.664Z,7144
2018-04-13T07:15:19.413Z,7140
2018-04-13T07:16:21.256Z,7148
2018-04-13T07:17:23.159Z,7156
2018-04-13T07:18:24.991Z,7096
2018-04-13T07:19:26.843Z,6996
2018-04-13T07:20:28.640Z,6936
2018-04-13T07:21:30.489Z,6972
2018-04-13T07:22:32.231Z,7104
2018-04-13T07:23:34.157Z,7288
2018-04-13T07:24:36.101Z,7464
2018-04-13T07:25:37.947Z,7612
2018-04-13T07:26:39.623Z,7696
2018-04-13T07:27:41.489Z,7728
2018-04-13T07:28:43.354Z,7784
2018-04-13T07:29:45.117Z,7780
2018-04-13T07:30:46.918Z,7756
2018-04-13T07:31:48.760Z,7708
2018-04-13T07:32:50.507Z,7700
2018-04-13T07:33:52.323Z,7736
2018-04-13T07:34:54.060Z,7772
2018-04-13T07:35:55.997Z,7792
2018-04-13T07:36:57.835Z,7816
2018-04-13T07:37:59.790Z,7880
2018-04-13T07:39:01.502Z,8004
2018-04-13T07:40:03.326Z,8176
2018-04-13T07:41:04.972Z,8380
2018-04-13T07:42:06.743Z,8604
2018-04-13T07:43:08.866Z,8844
2018-04-13T07:44:10.890Z,9084
2018-04-13T07:45:12.565Z,9340
2018-04-13T07:46:14.549Z,9576
2018-04-13T07:47:15.929Z,9812
2018-04-13T07:48:18.118Z,10040
2018-04-13T07:49:19.775Z,10220
2018-04-13T07:50:21.466Z,10312
2018-04-13T07:51:23.203Z,10284
2018-04-13T07:52:24.935Z,10112
2018-04-13T07:53:26.832Z,9804
2018-04-13T07:54:28.700Z,9380
2018-04-13T07:55:30.558Z,8880
2018-04-13T07:56:32.424Z,8348
2018-04-13T07:57:34.145Z,7856
2018-04-13T07:58:36.138Z,7476
2018-04-13T07:59:37.842Z,7264
2018-04-13T08:00:39.603Z,7236
2018-04-13T08:01:41.375Z,7392
2018-04-13T08:02:43.178Z,7632
2018-04-13T08:03:44.941Z,7884
2018-04-13T08:04:46.739Z,8100
2018-04-13T08:05:48.890Z,8280
2018-04-13T08:06:50.513Z,8432
2018-04-13T08:07:52.566Z,8584
2018-04-13T08:08:54.430Z,8760
2018-04-13T08:09:56.177Z,8984
2018-04-13T08:10:58.018Z,9272
2018-04-13T08:11:59.805Z,9632
2018-04-13T08:13:01.812Z,10100
2018-04-13T08:14:03.657Z,10648
2018-04-13T08:15:05.386Z,11156
2018-04-13T08:16:07.100Z,11616
2018-04-13T08:17:08.900Z,12036
2018-04-13T08:18:10.882Z,12344
2018-04-13T08:19:12.677Z,12548
2018-04-13T08:20:14.442Z,12652
2018-04-13T08:21:16.419Z,12680
2018-04-13T08:22:18.304Z,12636
2018-04-13T08:23:20.120Z,12488
2018-04-13T08:24:21.849Z,12256
2018-04-13T08:25:23.573Z,11968
2018-04-13T08:26:25.469Z,11664
2018-04-13T08:27:27.245Z,11436
2018-04-13T08:28:29.039Z,11312
2018-04-13T08:29:30.844Z,11256
2018-04-13T08:30:32.720Z,11324
2018-04-13T08:31:34.414Z,11428
2018-04-13T08:32:36.282Z,11564
2018-04-13T08:33:38.249Z,11704
2018-04-13T08:34:39.935Z,11884
2018-04-13T08:35:41.829Z,12084
2018-04-13T08:36:43.627Z,12276
2018-04-13T08:37:45.418Z,12488
2018-04-13T08:38:47.250Z,12688
2018-04-13T08:39:49.025Z,12864
2018-04-13T08:40:50.712Z,12944
2018-04-13T08:41:52.579Z,12944
2018-04-13T08:42:54.757Z,12848
2018-04-13T08:43:56.566Z,12668
2018-04-13T08:44:58.538Z,12372
2018-04-13T08:46:00.343Z,11956
2018-04-13T08:47:02.336Z,11528
2018-04-13T08:48:04.074Z,11152
2018-04-13T08:49:06.077Z,10832
2018-04-13T08:50:07.760Z,10584
2018-04-13T08:51:09.637Z,10424
2018-04-13T08:52:11.484Z,10328
2018-04-13T08:53:13.365Z,10268
2018-04-13T08:54:15.499Z,10196
2018-04-13T08:55:17.397Z,10108
2018-04-13T08:56:19.570Z,10024
2018-04-13T08:57:21.426Z,9960
2018-04-13T08:58:23.318Z,9900
2018-04-13T08:59:25.282Z,9840
2018-04-13T09:00:27.077Z,9780
2018-04-13T09:01:29.081Z,9724
2018-04-13T09:02:31.028Z,9656
2018-04-13T09:03:32.882Z,9524
2018-04-13T09:04:34.754Z,9296
2018-04-13T09:05:36.672Z,9016
2018-04-13T09:06:38.627Z,8712
2018-04-13T09:07:40.383Z,8456
2018-04-13T09:08:42.276Z,8292
2018-04-13T09:09:44.104Z,8212
2018-04-13T09:10:46.130Z,8204
2018-04-13T09:11:48.115Z,8248
2018-04-13T09:12:50.136Z,8304
2018-04-13T09:13:52.177Z,8372
2018-04-13T09:14:54.049Z,8444
2018-04-13T09:15:56.138Z,8484
2018-04-13T09:16:58.036Z,8480
2018-04-13T09:17:59.952Z,8444
2018-04-13T09:19:01.784Z,8404
2018-04-13T09:20:03.593Z,8384
2018-04-13T09:21:05.557Z,8336
2018-04-13T09:22:07.356Z,8308
2018-04-13T09:23:09.159Z,8228
2018-04-13T09:24:11.001Z,8116
2018-04-13T09:25:12.776Z,8000
2018-04-13T09:26:14.668Z,7856
2018-04-13T09:27:16.594Z,7684
2018-04-13T09:28:18.455Z,7500
2018-04-13T09:29:20.334Z,7320
2018-04-13T09:30:22.139Z,7112
2018-04-13T09:31:23.983Z,6896
2018-04-13T09:32:25.766Z,6704
2018-04-13T09:33:27.771Z,6576
2018-04-13T09:34:29.789Z,6544
2018-04-13T09:35:31.614Z,6620
2018-04-13T09:36:33.529Z,6836
2018-04-13T09:37:35.377Z,7160
2018-04-13T09:38:37.234Z,7572
2018-04-13T09:39:39.252Z,8012
2018-04-13T09:40:41.123Z,8392
2018-04-13T09:41:43.138Z,8576
2018-04-13T09:42:44.951Z,8452
2018-04-13T09:43:47.027Z,8036
2018-04-13T09:44:48.928Z,7544
2018-04-13T09:45:50.857Z,7144
2018-04-13T09:46:53.116Z,6936
2018-04-13T09:47:55.202Z,6860
2018-04-13T09:48:57.252Z,6892
2018-04-13T09:49:59.090Z,7028
2018-04-13T09:51:01.114Z,7244
2018-04-13T09:52:03.278Z,7512
2018-04-13T09:53:05.110Z,7812
2018-04-13T09:54:07.385Z,8088
2018-04-13T09:55:09.401Z,8336
2018-04-13T09:56:11.335Z,8520
2018-04-13T09:57:13.254Z,8664
2018-04-13T09:58:15.065Z,8764
2018-04-13T09:59:16.911Z,8820
2018-04-13T10:00:18.891Z,8792
2018-04-13T10:01:20.710Z,8672
2018-04-13T10:02:23.027Z,8472
2018-04-13T10:03:24.907Z,8272
2018-04-13T10:04:26.724Z,8148
2018-04-13T10:05:28.668Z,8124
2018-04-13T10:06:30.723Z,8168
2018-04-13T10:07:32.875Z,8212
2018-04-13T10:08:34.896Z,8256
2018-04-13T10:09:36.770Z,8240
2018-04-13T10:10:38.914Z,8172
2018-04-13T10:11:40.869Z,8148
2018-04-13T10:12:42.781Z,8132
2018-04-13T10:13:44.731Z,8168
2018-04-13T10:14:46.625Z,8312
2018-04-13T10:15:48.688Z,8512
2018-04-13T10:16:50.540Z,8752
2018-04-13T10:17:52.294Z,8968
2018-04-13T10:18:54.419Z,9196
2018-04-13T10:19:56.187Z,9432
2018-04-13T10:20:58.140Z,9668
2018-04-13T10:21:59.971Z,9912
2018-04-13T10:23:01.870Z,10140
2018-04-13T10:24:03.933Z,10352
2018-04-13T10:25:06.039Z,10580
2018-04-13T10:26:07.995Z,10852
2018-04-13T10:27:10.164Z,11184
2018-04-13T10:28:11.945Z,11616
2018-04-13T10:29:13.995Z,12160
2018-04-13T10:30:15.911Z,12732
2018-04-13T10:31:18.035Z,13296
2018-04-13T10:32:20.124Z,13768
2018-04-13T10:33:22.016Z,13952
2018-04-13T10:34:24.039Z,13684
2018-04-13T10:35:26.052Z,13056
2018-04-13T10:36:27.934Z,12428
2018-04-13T10:37:30.168Z,12104
2018-04-13T10:38:31.873Z,11960
2018-04-13T10:39:33.983Z,11716
2018-04-13T10:40:35.822Z,11316
2018-04-13T10:41:37.805Z,10844
2018-04-13T10:42:40.406Z,10432
2018-04-13T10:43:42.333Z,10116
2018-04-13T10:44:44.540Z,9848
2018-04-13T10:45:46.856Z,9652
2018-04-13T10:46:48.652Z,9536
2018-04-13T10:47:50.696Z,9580
2018-04-13T10:48:52.694Z,9724
2018-04-13T10:49:54.774Z,9928
2018-04-13T10:50:56.599Z,10140
2018-04-13T10:51:58.882Z,10276
2018-04-13T10:53:00.707Z,10276
2018-04-13T10:54:02.522Z,10216
2018-04-13T10:55:04.754Z,10124
2018-04-13T10:56:06.464Z,10068
2018-04-13T10:57:08.279Z,10032
2018-04-13T10:58:10.111Z,9996
2018-04-13T10:59:11.830Z,9872
2018-04-13T11:00:13.696Z,9656
2018-04-13T11:01:15.445Z,9344
2018-04-13T11:02:17.310Z,8960
2018-04-13T11:03:19.190Z,8496
2018-04-13T11:04:21.053Z,8024
2018-04-13T11:05:23.150Z,7604
2018-04-13T11:06:24.870Z,7232
2018-04-13T11:07:26.692Z,6940
2018-04-13T11:08:28.487Z,6708
2018-04-13T11:09:30.242Z,6504
2018-04-13T11:10:31.991Z,6312
2018-04-13T11:11:33.992Z,6144
2018-04-13T11:12:36.044Z,5984
2018-04-13T11:13:37.873Z,5860
2018-04-13T11:14:39.621Z,5756
2018-04-13T11:15:41.455Z,5676
2018-04-13T11:16:43.135Z,5632
2018-04-13T11:17:44.825Z,5648
2018-04-13T11:18:46.569Z,5744
2018-04-13T11:19:48.405Z,5920
2018-04-13T11:20:50.242Z,6152
2018-04-13T11:21:52.032Z,6416
2018-04-13T11:22:53.767Z,6704
2018-04-13T11:23:55.549Z,6992
2018-04-13T11:24:57.268Z,7244
2018-04-13T11:25:59.020Z,7420
2018-04-13T11:27:00.598Z,7492
2018-04-13T11:28:01.994Z,7468
2018-04-13T11:29:03.768Z,7392
2018-04-13T11:30:05.530Z,7348
2018-04-13T11:31:07.242Z,7304
2018-04-13T11:32:08.994Z,7228
2018-04-13T11:33:10.837Z,7096
2018-04-13T11:34:12.668Z,7080
2018-04-13T11:35:14.664Z,7064
2018-04-13T11:36:16.496Z,7084
2018-04-13T11:37:18.387Z,7144
2018-04-13T11:38:20.361Z,7164
2018-04-13T11:39:22.289Z,7248
2018-04-13T11:40:24.264Z,7356
2018-04-13T11:41:26.117Z,7400
2018-04-13T11:42:27.994Z,7388
2018-04-13T11:43:29.953Z,7416
2018-04-13T11:44:31.796Z,7492
2018-04-13T11:45:33.668Z,7588
2018-04-13T11:46:35.466Z,7576
2018-04-13T11:47:37.312Z,7468
2018-04-13T11:48:39.300Z,7444
2018-04-13T11:49:41.106Z,7464
2018-04-13T11:50:43.061Z,7388
2018-04-13T11:51:45.048Z,7284
2018-04-13T11:52:46.881Z,7096
2018-04-13T11:53:49.013Z,7032
2018-04-13T11:54:50.916Z,7040
2018-04-13T11:55:52.655Z,7048
2018-04-13T11:56:54.432Z,7040
2018-04-13T11:57:56.343Z,7092
2018-04-13T11:58:58.172Z,7212
2018-04-13T12:00:00.075Z,7400
2018-04-13T12:01:01.898Z,7636
2018-04-13T12:02:03.771Z,7888
2018-04-13T12:03:05.606Z,8212
2018-04-13T12:04:07.441Z,8564
2018-04-13T12:05:09.309Z,8932
2018-04-13T12:06:11.153Z,9244
2018-04-13T12:07:13.089Z,9532
2018-04-13T12:08:14.836Z,9732
2018-04-13T12:09:16.614Z,9820
2018-04-13T12:10:18.455Z,9868
2018-04-13T12:11:20.320Z,9840
2018-04-13T12:12:22.164Z,9812
2018-04-13T12:13:24.145Z,9748
2018-04-13T12:14:25.964Z,9728
2018-04-13T12:15:27.810Z,9724
2018-04-13T12:16:29.594Z,9752
2018-04-13T12:17:31.372Z,9880
2018-04-13T12:18:33.173Z,10096
2018-04-13T12:19:35.062Z,10316
2018-04-13T12:20:36.840Z,10348
2018-04-13T12:21:38.660Z,10268
2018-04-13T12:22:40.354Z,10064
2018-04-13T12:23:42.113Z,9892
2018-04-13T12:24:43.974Z,9644
2018-04-13T12:25:45.817Z,9376
2018-04-13T12:26:47.913Z,8872
2018-04-13T12:27:49.928Z,8492
2018-04-13T12:28:51.771Z,8160
2018-04-13T12:29:53.930Z,7944
2018-04-13T12:30:55.679Z,7720
2018-04-13T12:31:57.442Z,7472
2018-04-13T12:32:59.308Z,7404
2018-04-13T12:34:01.066Z,7432
2018-04-13T12:35:02.939Z,7408
2018-04-13T12:36:04.971Z,7176
2018-04-13T12:37:06.904Z,6836
2018-04-13T12:38:08.876Z,6928
2018-04-13T12:39:10.750Z,7116
2018-04-13T12:40:12.733Z,7360
2018-04-13T12:41:14.589Z,7736
2018-04-13T12:42:16.440Z,8064
2018-04-13T12:43:18.324Z,8396
2018-04-13T12:44:20.214Z,8756
2018-04-13T12:45:22.185Z,9168
2018-04-13T12:46:24.053Z,9220
2018-04-13T12:47:25.973Z,8716
2018-04-13T12:48:27.924Z,8524
2018-04-13T12:49:29.913Z,8804
2018-04-13T12:50:31.836Z,9236
2018-04-13T12:51:33.736Z,9236
2018-04-13T12:52:35.615Z,9292
2018-04-13T12:53:37.401Z,9152
2018-04-13T12:54:39.339Z,8764
2018-04-13T12:55:40.984Z,8360
2018-04-13T12:56:42.809Z,8116
2018-04-13T12:57:44.655Z,8056
2018-04-13T12:58:46.676Z,8000
2018-04-13T12:59:48.637Z,7836
2018-04-13T13:00:50.461Z,7528
2018-04-13T13:01:52.190Z,7212
2018-04-13T13:02:54.212Z,6836
2018-04-13T13:03:56.161Z,6512
2018-04-13T13:04:58.111Z,6272
2018-04-13T13:06:00.043Z,6128
2018-04-13T13:07:02.185Z,6024
2018-04-13T13:08:04.121Z,5920
2018-04-13T13:09:06.096Z,5820
2018-04-13T13:10:07.936Z,5768
2018-04-13T13:11:09.895Z,5752
2018-04-13T13:12:11.759Z,5744
2018-04-13T13:13:13.688Z,5712
2018-04-13T13:14:15.481Z,5632
2018-04-13T13:15:17.388Z,5464
2018-04-13T13:16:19.178Z,5244
2018-04-13T13:17:21.141Z,5048
2018-04-13T13:18:23.125Z,4884
2018-04-13T13:19:25.023Z,4692
2018-04-13T13:20:26.873Z,4508
2018-04-13T13:21:28.698Z,4324
2018-04-13T13:22:30.674Z,4108
2018-04-13T13:23:32.554Z,3884
2018-04-13T13:24:34.765Z,3712
2018-04-13T13:25:36.558Z,3544
2018-04-13T13:26:38.396Z,3424
2018-04-13T13:27:40.159Z,3328
2018-04-13T13:28:41.971Z,3252
2018-04-13T13:29:43.997Z,3200
2018-04-13T13:30:45.805Z,3148
2018-04-13T13:31:47.729Z,3068
2018-04-13T13:32:49.655Z,2964
2018-04-13T13:33:51.595Z,2952
2018-04-13T13:34:53.447Z,2976
2018-04-13T13:35:55.366Z,3004
2018-04-13T13:36:57.271Z,3056
2018-04-13T13:37:59.154Z,3264
2018-04-13T13:39:01.132Z,3576
2018-04-13T13:40:02.987Z,3656
2018-04-13T13:41:04.838Z,3740
2018-04-13T13:42:06.843Z,3932
2018-04-13T13:43:08.723Z,4256
2018-04-13T13:44:10.652Z,4392
2018-04-13T13:45:12.493Z,4340
2018-04-13T13:46:14.345Z,4316
2018-04-13T13:47:16.233Z,4452
2018-04-13T13:48:18.076Z,4744
2018-04-13T13:49:20.052Z,5072
2018-04-13T13:50:21.930Z,5368
2018-04-13T13:51:23.781Z,5248
2018-04-13T13:52:25.557Z,5060
2018-04-13T13:53:27.338Z,5092
2018-04-13T13:54:29.188Z,5256
2018-04-13T13:55:30.991Z,5420
2018-04-13T13:56:33.160Z,5496
2018-04-13T13:57:35.029Z,5284
2018-04-13T13:58:37.038Z,5288
2018-04-13T13:59:39.024Z,5316
2018-04-13T14:00:40.888Z,5408
2018-04-13T14:01:42.646Z,5464
2018-04-13T14:02:44.540Z,5344
2018-04-13T14:03:46.380Z,5284
2018-04-13T14:04:48.184Z,5436
2018-04-13T14:05:50.078Z,5636
2018-04-13T14:06:51.933Z,5644
2018-04-13T14:07:53.655Z,5420
2018-04-13T14:08:55.451Z,5280